createdAt,value
2022-10-23T00:01:45.549Z,4.30
2022-10-23T00:04:16.587Z,4.45
2022-10-23T00:06:43.404Z,4.55
2022-10-23T00:09:12.653Z,5.00
2022-10-23T00:11:39.055Z,4.75
2022-10-23T00:14:06.883Z,4.10
2022-10-23T00:16:33.672Z,4.72
2022-10-23T00:19:00.052Z,4.97
2022-10-23T00:21:26.745Z,3.80
2022-10-23T00:23:53.280Z,4.18
2022-10-23T00:26:19.736Z,4.07
2022-10-23T00:28:53.290Z,3.83
2022-10-23T00:31:20.375Z,3.55
2022-10-23T00:33:46.945Z,3.92
2022-10-23T00:36:14.780Z,5.32
2022-10-23T00:38:43.418Z,3.88
2022-10-23T00:41:10.178Z,4.03
2022-10-23T00:43:54.187Z,4.20
2022-10-23T00:46:20.648Z,4.43
2022-10-23T00:48:47.215Z,4.28
2022-10-23T00:51:13.659Z,4.47
2022-10-23T00:53:40.032Z,3.92
2022-10-23T00:56:06.718Z,4.03
2022-10-23T00:58:33.106Z,4.93
2022-10-23T01:00:59.540Z,3.63
2022-10-23T01:03:28.069Z,4.53
2022-10-23T01:06:00.274Z,3.88
2022-10-23T01:08:29.754Z,4.00
2022-10-23T01:11:07.246Z,4.75
2022-10-23T01:13:42.120Z,4.82
2022-10-23T01:16:15.350Z,4.50
2022-10-23T01:18:45.564Z,4.50
2022-10-23T01:21:30.738Z,3.70
2022-10-23T01:24:09.395Z,3.67
2022-10-23T01:26:54.115Z,4.32
2022-10-23T01:29:24.608Z,3.92
2022-10-23T01:31:58.012Z,3.97
2022-10-23T01:34:30.249Z,4.18
2022-10-23T01:36:58.075Z,4.32
2022-10-23T01:39:27.490Z,3.33
2022-10-23T01:41:59.763Z,4.00
2022-10-23T01:44:42.667Z,3.80
2022-10-23T01:47:10.528Z,3.70
2022-10-23T01:49:51.721Z,4.20
2022-10-23T01:52:18.221Z,4.38
2022-10-23T01:54:48.527Z,4.07
2022-10-23T01:57:16.779Z,4.38
2022-10-23T01:59:45.202Z,4.25
2022-10-23T02:02:12.464Z,3.50
2022-10-23T02:04:53.613Z,4.18
2022-10-23T02:07:20.000Z,3.95
2022-10-23T02:09:46.936Z,3.80
2022-10-23T02:12:17.072Z,4.03
2022-10-23T02:15:03.602Z,3.20
2022-10-23T02:17:37.079Z,3.45
2022-10-23T02:22:36.089Z,3.63
2022-10-23T02:27:34.513Z,3.10
2022-10-23T02:30:11.560Z,2.92
2022-10-23T02:32:40.316Z,3.40
2022-10-23T02:35:07.547Z,2.97
2022-10-23T02:37:34.281Z,3.60
2022-10-23T02:40:03.955Z,2.97
2022-10-23T02:43:07.233Z,3.05
2022-10-23T02:48:28.034Z,3.03
2022-10-23T02:51:14.768Z,2.67
2022-10-23T02:53:50.554Z,2.97
2022-10-23T02:56:28.834Z,2.90
2022-10-23T02:59:14.228Z,3.38
2022-10-23T03:01:52.468Z,3.80
2022-10-23T03:04:24.358Z,3.08
2022-10-23T03:06:51.435Z,3.42
2022-10-23T03:09:18.376Z,3.08
2022-10-23T03:11:44.957Z,2.85
2022-10-23T03:14:13.293Z,2.80
2022-10-23T03:16:39.709Z,2.63
2022-10-23T03:19:06.134Z,2.45
2022-10-23T03:21:32.558Z,3.10
2022-10-23T03:23:58.963Z,2.65
2022-10-23T03:26:34.469Z,3.10
2022-10-23T03:29:00.968Z,2.78
2022-10-23T03:31:27.502Z,3.80
2022-10-23T03:33:57.562Z,3.15
2022-10-23T03:36:23.953Z,3.08
2022-10-23T03:38:50.693Z,2.50
2022-10-23T03:41:17.285Z,2.67
2022-10-23T03:43:43.679Z,2.53
2022-10-23T03:46:12.738Z,2.72
2022-10-23T03:48:39.166Z,3.38
2022-10-23T03:51:06.116Z,3.33
2022-10-23T03:53:32.552Z,2.67
2022-10-23T03:56:01.718Z,2.83
2022-10-23T03:58:28.362Z,3.95
2022-10-23T04:03:37.589Z,3.03
2022-10-23T04:06:04.144Z,2.63
2022-10-23T04:08:31.262Z,3.08
2022-10-23T04:10:57.694Z,3.20
2022-10-23T04:13:34.163Z,2.70
2022-10-23T04:16:01.017Z,3.97
2022-10-23T04:18:27.441Z,2.83
2022-10-23T04:20:54.122Z,2.97
2022-10-23T04:23:21.139Z,2.40
2022-10-23T04:28:14.813Z,2.75
2022-10-23T04:30:41.671Z,2.53
2022-10-23T04:33:10.351Z,3.13
2022-10-23T04:35:36.956Z,2.42
2022-10-23T04:38:03.362Z,2.40
2022-10-23T04:40:29.925Z,2.72
2022-10-23T04:42:56.405Z,2.97
2022-10-23T04:45:22.893Z,2.58
2022-10-23T04:47:49.371Z,2.65
2022-10-23T04:50:16.498Z,2.88
2022-10-23T04:53:01.480Z,2.95
2022-10-23T04:58:16.463Z,2.90
2022-10-23T05:00:44.078Z,2.85
2022-10-23T05:03:13.675Z,3.13
2022-10-23T05:05:41.608Z,2.78
2022-10-23T05:08:27.274Z,3.03
2022-10-23T05:11:21.122Z,2.97
2022-10-23T05:13:49.661Z,2.60
2022-10-23T05:16:39.340Z,2.33
2022-10-23T05:19:07.675Z,2.50
2022-10-23T05:21:35.463Z,2.55
2022-10-23T05:24:05.163Z,2.38
2022-10-23T05:26:31.931Z,2.38
2022-10-23T05:29:03.761Z,2.80
2022-10-23T05:31:30.197Z,2.90
2022-10-23T05:34:03.996Z,2.40
2022-10-23T05:36:30.778Z,2.08
2022-10-23T05:38:57.549Z,2.50
2022-10-23T05:41:23.932Z,2.95
2022-10-23T05:43:50.301Z,3.15
2022-10-23T05:46:43.079Z,2.50
2022-10-23T05:49:18.596Z,3.00
2022-10-23T05:52:12.986Z,2.58
2022-10-23T05:54:47.354Z,2.72
2022-10-23T05:57:21.032Z,2.95
2022-10-23T05:59:50.091Z,2.75
2022-10-23T06:02:19.173Z,2.70
2022-10-23T06:04:52.358Z,3.30
2022-10-23T06:07:37.189Z,2.50
2022-10-23T06:10:06.425Z,2.95
2022-10-23T06:12:36.081Z,2.42
2022-10-23T06:15:02.873Z,2.50
2022-10-23T06:17:49.235Z,2.80
2022-10-23T06:20:15.774Z,2.58
2022-10-23T06:22:44.155Z,2.53
2022-10-23T06:25:33.601Z,2.85
2022-10-23T06:28:04.872Z,2.97
2022-10-23T06:30:31.980Z,2.90
2022-10-23T06:33:02.058Z,2.90
2022-10-23T06:35:31.032Z,3.55
2022-10-23T06:37:57.660Z,2.70
2022-10-23T06:40:35.217Z,2.97
2022-10-23T06:43:05.479Z,3.08
2022-10-23T06:45:50.717Z,2.67
2022-10-23T06:48:17.112Z,3.03
2022-10-23T06:53:45.672Z,3.60
2022-10-23T06:56:32.280Z,3.38
2022-10-23T06:59:00.296Z,3.22
2022-10-23T07:01:27.310Z,3.20
2022-10-23T07:03:55.607Z,3.75
2022-10-23T07:06:25.804Z,3.60
2022-10-23T07:08:52.895Z,6.25
2022-10-23T07:11:39.833Z,4.93
2022-10-23T07:14:06.447Z,6.03
2022-10-23T07:16:33.199Z,5.10
2022-10-23T07:19:01.221Z,4.93
2022-10-23T07:21:28.881Z,4.63
2022-10-23T07:24:03.776Z,6.35
2022-10-23T07:26:33.187Z,6.07
2022-10-23T07:28:59.800Z,4.70
2022-10-23T07:31:28.312Z,3.80
2022-10-23T07:34:33.693Z,10.48
2022-10-23T07:37:24.399Z,9.05
2022-10-23T07:39:50.761Z,5.70
2022-10-23T07:42:17.152Z,3.80
2022-10-23T07:44:43.730Z,3.75
2022-10-23T07:47:10.501Z,3.35
2022-10-23T07:49:40.035Z,3.70
2022-10-23T07:52:06.751Z,3.75
2022-10-23T07:54:53.349Z,3.50
2022-10-23T07:57:20.720Z,3.25
2022-10-23T07:59:57.629Z,4.20
2022-10-23T08:02:24.780Z,3.50
2022-10-23T08:04:52.567Z,3.50
2022-10-23T08:07:40.676Z,3.78
2022-10-23T08:10:07.359Z,3.75
2022-10-23T08:12:37.404Z,3.30
2022-10-23T08:15:04.479Z,3.72
2022-10-23T08:17:40.159Z,4.00
2022-10-23T08:20:15.956Z,3.35
2022-10-23T08:22:44.378Z,3.50
2022-10-23T08:25:13.197Z,3.72
2022-10-23T08:27:39.844Z,3.63
2022-10-23T08:30:06.579Z,3.97
2022-10-23T08:32:33.082Z,4.25
2022-10-23T08:35:01.769Z,4.07
2022-10-23T08:37:30.697Z,3.47
2022-10-23T08:39:57.849Z,3.38
2022-10-23T08:42:51.496Z,3.53
2022-10-23T08:45:30.314Z,3.70
2022-10-23T08:48:13.189Z,3.33
2022-10-23T08:51:16.199Z,3.35
2022-10-23T08:53:54.523Z,3.15
2022-10-23T08:56:26.749Z,3.75
2022-10-23T08:58:55.498Z,4.28
2022-10-23T09:01:36.013Z,3.65
2022-10-23T09:04:03.081Z,3.38
2022-10-23T09:06:29.392Z,3.90
2022-10-23T09:09:10.913Z,4.13
2022-10-23T09:11:55.281Z,3.75
2022-10-23T09:14:27.688Z,4.38
2022-10-23T09:16:56.740Z,4.35
2022-10-23T09:19:27.963Z,5.20
2022-10-23T09:21:55.223Z,4.85
2022-10-23T09:24:23.426Z,3.83
2022-10-23T09:26:50.948Z,3.53
2022-10-23T09:29:27.970Z,3.40
2022-10-23T09:32:00.812Z,3.65
2022-10-23T09:34:28.379Z,3.00
2022-10-23T09:36:56.563Z,4.13
2022-10-23T09:39:24.543Z,4.90
2022-10-23T09:41:54.128Z,3.88
2022-10-23T09:44:27.869Z,3.78
2022-10-23T09:46:58.483Z,6.85
2022-10-23T09:49:24.820Z,3.80
2022-10-23T09:52:02.194Z,3.25
2022-10-23T09:54:39.777Z,3.85
2022-10-23T09:57:15.639Z,3.38
2022-10-23T09:59:42.357Z,3.30
2022-10-23T10:02:27.091Z,3.78
2022-10-23T10:05:21.103Z,3.92
2022-10-23T10:07:55.234Z,3.53
2022-10-23T10:10:21.850Z,4.15
2022-10-23T10:12:59.164Z,3.80
2022-10-23T10:15:34.693Z,3.80
2022-10-23T10:18:26.455Z,4.47
2022-10-23T10:21:09.018Z,4.43
2022-10-23T10:23:42.998Z,4.10
2022-10-23T10:28:58.957Z,3.70
2022-10-23T10:31:50.564Z,4.05
2022-10-23T10:34:19.295Z,4.72
2022-10-23T10:36:45.595Z,4.38
2022-10-23T10:39:21.589Z,4.15
2022-10-23T10:42:06.668Z,4.60
2022-10-23T10:44:48.374Z,4.10
2022-10-23T10:47:17.164Z,4.07
2022-10-23T10:49:55.744Z,4.05
2022-10-23T10:52:33.237Z,3.33
2022-10-23T10:54:59.570Z,2.83
2022-10-23T10:57:38.083Z,2.65
2022-10-23T11:00:06.484Z,2.15
2022-10-23T11:02:41.407Z,2.10
2022-10-23T11:05:13.942Z,1.90
2022-10-23T11:07:52.019Z,2.30
2022-10-23T11:10:19.247Z,2.00
2022-10-23T11:12:46.660Z,1.58
2022-10-23T11:15:17.644Z,1.50
2022-10-23T11:18:04.278Z,1.40
2022-10-23T11:20:39.863Z,1.15
2022-10-23T11:23:26.136Z,1.05
2022-10-23T11:26:10.416Z,1.35
2022-10-23T11:28:48.906Z,1.48
2022-10-23T11:31:21.939Z,0.93
2022-10-23T11:33:57.588Z,1.02
2022-10-23T11:36:42.351Z,1.30
2022-10-23T11:39:17.472Z,1.40
2022-10-23T11:41:54.800Z,1.60
2022-10-23T11:44:27.457Z,1.00
2022-10-23T11:47:01.040Z,0.90
2022-10-23T11:49:27.393Z,1.58
2022-10-23T11:52:00.937Z,1.02
2022-10-23T11:54:27.434Z,1.77
2022-10-23T11:57:03.201Z,1.30
2022-10-23T11:59:45.159Z,2.28
2022-10-23T12:02:31.939Z,1.13
2022-10-23T12:05:01.633Z,1.30
2022-10-23T12:07:29.839Z,1.85
2022-10-23T12:10:00.524Z,0.98
2022-10-23T12:12:41.787Z,1.38
2022-10-23T12:15:11.190Z,2.63
2022-10-23T12:17:42.045Z,1.70
2022-10-23T12:20:08.564Z,1.15
2022-10-23T12:22:53.779Z,1.17
2022-10-23T12:25:25.966Z,1.58
2022-10-23T12:28:10.992Z,1.35
2022-10-23T12:30:40.530Z,1.42
2022-10-23T12:33:18.146Z,1.88
2022-10-23T12:36:02.738Z,1.60
2022-10-23T12:38:33.850Z,3.70
2022-10-23T12:41:09.639Z,2.25
2022-10-23T12:46:17.906Z,2.00
2022-10-23T12:48:49.125Z,1.70
2022-10-23T12:51:23.532Z,2.17
2022-10-23T12:53:50.372Z,2.00
2022-10-23T12:56:17.114Z,2.17
2022-10-23T12:58:51.224Z,1.95
2022-10-23T13:01:28.187Z,2.50
2022-10-23T13:03:59.354Z,1.85
2022-10-23T13:06:26.410Z,1.58
2022-10-23T13:08:52.842Z,2.17
2022-10-23T13:11:42.369Z,2.30
2022-10-23T13:14:13.556Z,2.05
2022-10-23T13:16:39.966Z,2.80
2022-10-23T13:19:06.291Z,2.75
2022-10-23T13:21:32.906Z,2.05
2022-10-23T13:23:59.492Z,2.22
2022-10-23T13:26:30.659Z,2.08
2022-10-23T13:28:57.495Z,2.22
2022-10-23T13:31:25.276Z,2.40
2022-10-23T13:34:04.165Z,1.77
2022-10-23T13:36:31.872Z,1.95
2022-10-23T13:39:09.037Z,1.70
2022-10-23T13:41:37.065Z,1.88
2022-10-23T13:44:03.656Z,2.53
2022-10-23T13:46:30.112Z,3.13
2022-10-23T13:48:56.467Z,2.08
2022-10-23T13:51:24.172Z,1.80
2022-10-23T13:53:52.056Z,3.92
2022-10-23T13:56:19.524Z,2.08
2022-10-23T13:58:46.209Z,2.00
2022-10-23T14:01:19.623Z,2.00
2022-10-23T14:03:47.013Z,1.80
2022-10-23T14:06:13.497Z,1.90
2022-10-23T14:08:39.878Z,1.98
2022-10-23T14:11:06.575Z,2.08
2022-10-23T14:13:33.045Z,1.58
2022-10-23T14:15:59.424Z,1.73
2022-10-23T14:18:25.862Z,1.90
2022-10-23T14:20:52.322Z,2.13
2022-10-23T14:23:18.656Z,2.53
2022-10-23T14:25:45.044Z,1.60
2022-10-23T14:28:11.464Z,2.30
2022-10-23T14:30:37.909Z,1.73
2022-10-23T14:33:04.372Z,2.03
2022-10-23T14:35:30.762Z,2.22
2022-10-23T14:37:58.498Z,5.28
2022-10-23T14:40:25.401Z,4.25
2022-10-23T14:42:51.882Z,2.70
2022-10-23T14:45:18.236Z,2.45
2022-10-23T14:47:44.928Z,2.25
2022-10-23T14:50:11.854Z,3.33
2022-10-23T14:52:38.219Z,2.63
2022-10-23T14:55:04.833Z,2.97
2022-10-23T14:57:31.196Z,2.58
2022-10-23T14:59:57.532Z,2.42
2022-10-23T15:02:23.982Z,3.00
2022-10-23T15:04:50.404Z,2.63
2022-10-23T15:07:16.760Z,1.98
2022-10-23T15:09:43.096Z,3.75
2022-10-23T15:12:09.464Z,2.85
2022-10-23T15:14:35.889Z,2.08
2022-10-23T15:17:02.897Z,2.80
2022-10-23T15:19:29.312Z,2.50
2022-10-23T15:21:55.779Z,1.75
2022-10-23T15:24:22.184Z,2.30
2022-10-23T15:26:49.833Z,2.50
2022-10-23T15:29:16.346Z,2.03
2022-10-23T15:31:52.463Z,2.90
2022-10-23T15:34:19.737Z,2.75
2022-10-23T15:36:47.100Z,2.85
2022-10-23T15:39:15.428Z,1.73
2022-10-23T15:41:43.048Z,1.67
2022-10-23T15:44:11.818Z,1.83
2022-10-23T15:46:38.253Z,2.45
2022-10-23T15:49:04.711Z,2.63
2022-10-23T15:51:31.320Z,1.90
2022-10-23T15:53:57.890Z,2.30
2022-10-23T15:56:24.584Z,2.08
2022-10-23T15:58:50.985Z,2.00
2022-10-23T16:01:17.575Z,1.60
2022-10-23T16:03:44.724Z,2.92
2022-10-23T16:06:12.072Z,3.20
2022-10-23T16:08:38.895Z,2.88
2022-10-23T16:11:11.858Z,2.42
2022-10-23T16:13:38.242Z,2.15
2022-10-23T16:16:04.742Z,2.28
2022-10-23T16:18:31.179Z,3.75
2022-10-23T16:20:57.555Z,1.92
2022-10-23T16:23:23.976Z,3.72
2022-10-23T16:25:51.074Z,4.93
2022-10-23T16:28:17.533Z,4.85
2022-10-23T16:30:44.169Z,5.55
2022-10-23T16:33:10.606Z,3.60
2022-10-23T16:35:37.251Z,3.78
2022-10-23T16:38:11.876Z,3.33
2022-10-23T16:40:38.283Z,3.15
2022-10-23T16:43:23.339Z,3.58
2022-10-23T16:46:15.177Z,3.15
2022-10-23T16:48:41.721Z,2.40
2022-10-23T16:51:12.145Z,3.40
2022-10-23T16:53:38.997Z,3.03
2022-10-23T16:56:06.140Z,2.58
2022-10-23T16:58:33.100Z,4.03
2022-10-23T17:01:00.814Z,3.83
2022-10-23T17:03:27.642Z,3.63
2022-10-23T17:05:56.409Z,3.95
2022-10-23T17:08:24.846Z,4.68
2022-10-23T17:11:02.305Z,4.75
2022-10-23T17:13:28.689Z,5.40
2022-10-23T17:16:03.013Z,3.85
2022-10-23T17:18:29.452Z,4.10
2022-10-23T17:20:56.391Z,5.63
2022-10-23T17:23:22.768Z,5.50
2022-10-23T17:25:49.504Z,6.32
2022-10-23T17:28:15.951Z,5.57
2022-10-23T17:30:42.382Z,6.03
2022-10-23T17:33:08.846Z,4.53
2022-10-23T17:35:35.183Z,5.40
2022-10-23T17:38:01.730Z,4.30
2022-10-23T17:40:30.881Z,4.25
2022-10-23T17:42:57.412Z,5.63
2022-10-23T17:45:23.782Z,4.68
2022-10-23T17:47:50.159Z,4.65
2022-10-23T17:50:16.519Z,4.05
2022-10-23T17:52:43.282Z,4.18
2022-10-23T17:55:09.917Z,3.83
2022-10-23T17:57:36.353Z,4.78
2022-10-23T18:00:04.265Z,3.42
2022-10-23T18:02:38.979Z,3.70
2022-10-23T18:05:05.681Z,4.38
2022-10-23T18:07:32.048Z,6.78
2022-10-23T18:09:58.383Z,4.43
2022-10-23T18:12:24.903Z,6.40
2022-10-23T18:14:51.680Z,5.55
2022-10-23T18:17:18.154Z,6.85
2022-10-23T18:19:44.555Z,5.65
2022-10-23T18:22:11.131Z,6.65
2022-10-23T18:24:38.190Z,5.43
2022-10-23T18:27:04.569Z,5.03
2022-10-23T18:29:31.172Z,5.47
2022-10-23T18:31:57.572Z,6.13
2022-10-23T18:34:24.643Z,5.47
2022-10-23T18:36:52.258Z,5.40
2022-10-23T18:39:22.204Z,4.80
2022-10-23T18:41:50.047Z,5.53
2022-10-23T18:44:17.499Z,5.30
2022-10-23T18:46:45.813Z,5.65
2022-10-23T18:49:12.524Z,5.50
2022-10-23T18:51:39.439Z,4.82
2022-10-23T18:54:08.016Z,4.82
2022-10-23T18:56:35.935Z,6.00
2022-10-23T18:59:04.236Z,4.70
2022-10-23T19:01:30.972Z,5.22
2022-10-23T19:03:58.813Z,4.68
2022-10-23T19:06:25.233Z,4.45
2022-10-23T19:08:52.073Z,4.97
2022-10-23T19:11:19.786Z,4.78
2022-10-23T19:13:46.237Z,4.22
2022-10-23T19:16:14.604Z,4.72
2022-10-23T19:18:42.063Z,5.30
2022-10-23T19:21:09.032Z,5.38
2022-10-23T19:23:36.441Z,5.38
2022-10-23T19:26:11.904Z,4.97
2022-10-23T19:28:40.328Z,5.15
2022-10-23T19:31:07.824Z,6.40
2022-10-23T19:33:36.037Z,5.20
2022-10-23T19:36:05.513Z,4.68
2022-10-23T19:38:32.791Z,4.25
2022-10-23T19:40:59.161Z,4.95
2022-10-23T19:43:25.599Z,4.20
2022-10-23T19:45:51.941Z,3.53
2022-10-23T19:48:18.297Z,4.75
2022-10-23T19:50:44.797Z,3.72
2022-10-23T19:53:11.200Z,4.13
2022-10-23T19:55:37.522Z,4.22
2022-10-23T19:58:03.889Z,4.10
2022-10-23T20:00:30.422Z,3.63
2022-10-23T20:02:56.835Z,3.10
2022-10-23T20:05:23.203Z,3.47
2022-10-23T20:07:50.733Z,3.50
2022-10-23T20:10:17.159Z,3.42
2022-10-23T20:12:47.475Z,3.58
2022-10-23T20:15:23.559Z,3.33
2022-10-23T20:17:50.507Z,3.97
2022-10-23T20:20:17.308Z,3.00
2022-10-23T20:22:44.220Z,4.78
2022-10-23T20:25:10.781Z,3.42
2022-10-23T20:30:03.899Z,4.13
2022-10-23T20:32:30.556Z,4.20
2022-10-23T20:34:56.935Z,4.35
2022-10-23T20:37:23.293Z,3.97
2022-10-23T20:39:49.723Z,4.20
2022-10-23T20:42:16.210Z,5.22
2022-10-23T20:44:42.573Z,4.55
2022-10-23T20:47:08.934Z,4.60
2022-10-23T20:49:35.438Z,4.07
2022-10-23T20:52:02.952Z,4.35
2022-10-23T20:54:29.379Z,4.22
2022-10-23T20:56:57.066Z,4.05
2022-10-23T20:59:23.735Z,3.60
2022-10-23T21:01:51.377Z,3.67
2022-10-23T21:04:19.328Z,4.35
2022-10-23T21:07:04.743Z,4.25
2022-10-23T21:09:32.335Z,4.30
2022-10-23T21:11:58.761Z,4.38
2022-10-23T21:14:25.199Z,3.72
2022-10-23T21:16:51.677Z,3.97
2022-10-23T21:19:18.222Z,3.58
2022-10-23T21:21:44.554Z,4.57
2022-10-23T21:24:14.016Z,4.55
2022-10-23T21:26:40.403Z,4.95
2022-10-23T21:29:17.891Z,3.85
2022-10-23T21:31:45.626Z,3.67
2022-10-23T21:34:12.106Z,3.80
2022-10-23T21:36:48.572Z,3.58
2022-10-23T21:39:25.262Z,3.55
2022-10-23T21:41:51.750Z,4.13
2022-10-23T21:44:18.129Z,3.78
2022-10-23T21:46:44.868Z,3.13
2022-10-23T21:49:11.763Z,4.15
2022-10-23T21:51:38.382Z,3.90
2022-10-23T21:54:10.954Z,4.30
2022-10-23T21:56:42.451Z,4.00
2022-10-23T21:59:12.946Z,4.68
2022-10-23T22:01:39.800Z,4.90
2022-10-23T22:04:06.315Z,4.68
2022-10-23T22:06:32.972Z,4.35
2022-10-23T22:09:01.026Z,6.10
2022-10-23T22:11:27.705Z,5.82
2022-10-23T22:13:54.554Z,4.78
2022-10-23T22:16:21.265Z,7.13
2022-10-23T22:18:48.070Z,5.07
2022-10-23T22:21:18.945Z,5.28
2022-10-23T22:23:45.520Z,5.50
2022-10-23T22:26:22.905Z,5.05
2022-10-23T22:28:50.028Z,5.25
2022-10-23T22:31:18.107Z,5.13
2022-10-23T22:33:44.885Z,5.07
2022-10-23T22:36:11.820Z,5.38
2022-10-23T22:38:39.218Z,5.28
2022-10-23T22:41:05.946Z,5.35
2022-10-23T22:43:32.521Z,5.40
2022-10-23T22:46:06.556Z,5.75
2022-10-23T22:48:33.233Z,5.22
2022-10-23T22:50:59.686Z,4.82
2022-10-23T22:53:26.117Z,4.88
2022-10-23T22:55:53.340Z,4.80
2022-10-23T22:58:20.258Z,5.00
2022-10-23T23:00:46.800Z,5.10
2022-10-23T23:03:13.736Z,5.47
2022-10-23T23:05:47.769Z,5.45
2022-10-23T23:08:14.490Z,4.88
2022-10-23T23:10:41.260Z,5.72
2022-10-23T23:13:07.656Z,3.88
2022-10-23T23:15:38.592Z,4.78
2022-10-23T23:18:05.129Z,4.63
2022-10-23T23:20:31.514Z,4.85
2022-10-23T23:22:57.843Z,5.63
2022-10-23T23:25:24.227Z,6.40
2022-10-23T23:27:50.663Z,6.00
2022-10-23T23:30:17.050Z,5.35
2022-10-23T23:32:43.846Z,5.50
2022-10-23T23:35:10.467Z,5.00
2022-10-23T23:37:36.973Z,5.82
2022-10-23T23:40:03.671Z,5.43
2022-10-23T23:42:30.551Z,4.80
2022-10-23T23:45:02.839Z,5.70
2022-10-23T23:47:36.672Z,4.68
2022-10-23T23:50:03.627Z,5.10
2022-10-23T23:52:29.950Z,4.75
2022-10-23T23:54:56.462Z,5.15
2022-10-23T23:57:22.841Z,5.55
2022-10-23T23:59:49.167Z,5.63
